Time;durP1;ratioP1;P1;durP2;ratioP2;P2;SDS_P1;SDS_P2;PMS_P1;PMS_P2;Temp;Humidity;BMP_temperature;BMP_pressure;BME280_temperature;BME280_humidity;BME280_pressure;Samples;Min_cycle;Max_cycle;Signal;HPM_P1;HPM_P2
2023/03/18 00:02:39;;;;;;;23.83;13.27;;;;;;;;;;5036536;28;20042;-80
2023/03/18 00:05:24;;;;;;;23.92;13.38;;;;;;;;;;5037223;28;20406;-81
2023/03/18 00:08:11;;;;;;;26.95;14.82;;;;;;;;;;5036366;28;20053;-81
2023/03/18 00:10:56;;;;;;;36.53;18.00;;;;;;;;;;5036156;28;20045;-80
2023/03/18 00:13:42;;;;;;;44.65;23.60;;;;;;;;;;5036412;28;20049;-80
2023/03/18 00:16:27;;;;;;;38.42;18.83;;;;;;;;;;5042078;28;20045;-80
2023/03/18 00:19:12;;;;;;;34.95;18.38;;;;;;;;;;5034795;28;20041;-81
2023/03/18 00:21:58;;;;;;;40.22;19.00;;;;;;;;;;5035576;28;20046;-81
2023/03/18 00:24:43;;;;;;;39.55;19.25;;;;;;;;;;5035723;28;20493;-81
2023/03/18 00:27:28;;;;;;;44.72;19.88;;;;;;;;;;5036202;28;20054;-81
2023/03/18 00:30:13;;;;;;;43.20;22.38;;;;;;;;;;5041621;28;20057;-81
2023/03/18 00:32:59;;;;;;;47.75;23.15;;;;;;;;;;5035484;28;20046;-81
2023/03/18 00:35:45;;;;;;;57.83;26.67;;;;;;;;;;5041212;28;20045;-81
2023/03/18 00:38:31;;;;;;;69.65;30.05;;;;;;;;;;5035619;28;20057;-81
2023/03/18 00:41:16;;;;;;;61.65;29.20;;;;;;;;;;5035747;28;20045;-80
2023/03/18 00:44:02;;;;;;;59.22;28.77;;;;;;;;;;5041404;28;20046;-79
2023/03/18 00:46:47;;;;;;;55.78;27.02;;;;;;;;;;5040579;28;20045;-80
2023/03/18 00:49:33;;;;;;;53.03;25.95;;;;;;;;;;5035639;28;20042;-80
2023/03/18 00:52:19;;;;;;;50.38;24.17;;;;;;;;;;5035374;28;20045;-79
2023/03/18 00:55:05;;;;;;;54.25;24.30;;;;;;;;;;5041436;28;20053;-79
2023/03/18 00:57:51;;;;;;;41.50;19.13;;;;;;;;;;5041626;28;20057;-80
2023/03/18 01:00:38;;;;;;;38.75;17.25;;;;;;;;;;5040806;28;20401;-79
2023/03/18 01:03:25;;;;;;;28.05;14.98;;;;;;;;;;5038970;28;20053;-79
2023/03/18 01:06:12;;;;;;;27.70;12.63;;;;;;;;;;5026725;28;20045;-79
2023/03/18 01:08:58;;;;;;;22.30;11.43;;;;;;;;;;5040735;28;20049;-79
2023/03/18 01:11:43;;;;;;;19.13;10.30;;;;;;;;;;5034123;28;20041;-79
2023/03/18 01:14:37;;;;;;;20.60;8.80;;;;;;;;;;5034823;28;20482;-78
2023/03/18 01:17:22;;;;;;;17.50;8.52;;;;;;;;;;5035118;28;20045;-79
2023/03/18 01:20:10;;;;;;;14.50;9.10;;;;;;;;;;5034603;28;20491;-79
2023/03/18 01:22:57;;;;;;;17.17;10.25;;;;;;;;;;5035516;28;20053;-79
2023/03/18 01:25:44;;;;;;;12.32;7.32;;;;;;;;;;5040323;28;20049;-79
2023/03/18 01:28:32;;;;;;;12.98;6.93;;;;;;;;;;5040325;28;20049;-79
2023/03/18 01:31:18;;;;;;;14.52;8.43;;;;;;;;;;5040258;28;20490;-79
2023/03/18 01:34:04;;;;;;;16.60;9.27;;;;;;;;;;5034214;28;20042;-79
2023/03/18 01:36:59;;;;;;;;;;;;;;;;;;5028325;28;20426;-80
2023/03/18 01:39:48;;;;;;;33.75;14.90;;;;;;;;;;5040393;28;19912;-79
2023/03/18 01:42:41;;;;;;;41.78;19.08;;;;;;;;;;5039998;28;20057;-79
2023/03/18 01:45:29;;;;;;;26.63;14.55;;;;;;;;;;5040757;28;20045;-80
2023/03/18 01:48:18;;;;;;;24.83;12.05;;;;;;;;;;5039841;28;20403;-79
2023/03/18 01:51:07;;;;;;;30.33;15.55;;;;;;;;;;5040140;28;20478;-79
2023/03/18 01:53:54;;;;;;;23.85;12.45;;;;;;;;;;5039821;28;20049;-79
2023/03/18 01:56:42;;;;;;;38.15;18.05;;;;;;;;;;5034139;28;20041;-79
2023/03/18 01:59:32;;;;;;;32.33;15.27;;;;;;;;;;5034571;28;20050;-79
2023/03/18 02:02:19;;;;;;;30.25;14.13;;;;;;;;;;5039835;28;20049;-79
2023/03/18 02:05:10;;;;;;;35.10;14.57;;;;;;;;;;5033131;28;20375;-78
2023/03/18 02:07:56;;;;;;;29.88;14.98;;;;;;;;;;5039846;28;20053;-79
2023/03/18 02:10:41;;;;;;;33.47;14.60;;;;;;;;;;5033973;28;20478;-78
2023/03/18 02:13:30;;;;;;;36.67;16.27;;;;;;;;;;5039451;28;20041;-78
2023/03/18 02:16:23;;;;;;;36.92;15.75;;;;;;;;;;5039146;28;20435;-79
2023/03/18 02:19:21;;;;;;;35.50;16.70;;;;;;;;;;5039865;28;20045;-79
2023/03/18 02:22:15;;;;;;;40.80;15.40;;;;;;;;;;5033085;28;20045;-78
2023/03/18 02:25:05;;;;;;;33.42;13.75;;;;;;;;;;5039373;28;20046;-79
2023/03/18 02:27:57;;;;;;;34.72;14.45;;;;;;;;;;5039821;28;20053;-78
2023/03/18 02:30:46;;;;;;;21.98;10.40;;;;;;;;;;5039574;28;20049;-78
2023/03/18 02:33:37;;;;;;;20.90;8.80;;;;;;;;;;5025676;28;20049;-79
2023/03/18 02:36:26;;;;;;;12.98;7.32;;;;;;;;;;5026015;28;20042;-79
2023/03/18 02:39:15;;;;;;;13.77;7.53;;;;;;;;;;5039292;28;20049;-79
2023/03/18 02:42:01;;;;;;;15.05;7.78;;;;;;;;;;5039646;28;20045;-78
2023/03/18 02:44:46;;;;;;;16.83;8.52;;;;;;;;;;5038355;28;20065;-78
2023/03/18 02:47:59;;;;;;;13.55;8.00;;;;;;;;;;5039245;28;20045;-78
2023/03/18 02:50:46;;;;;;;17.73;9.20;;;;;;;;;;5039470;28;20045;-78
2023/03/18 02:53:32;;;;;;;20.58;9.48;;;;;;;;;;5032526;28;20402;-79
2023/03/18 02:56:18;;;;;;;15.60;8.35;;;;;;;;;;5025067;28;20045;-79
2023/03/18 02:59:03;;;;;;;26.55;9.20;;;;;;;;;;5033263;28;20061;-79
2023/03/18 03:01:51;;;;;;;14.60;8.68;;;;;;;;;;5039163;28;20475;-78
2023/03/18 03:04:35;;;;;;;19.15;9.57;;;;;;;;;;5034134;28;20064;-78
2023/03/18 03:07:25;;;;;;;17.73;10.05;;;;;;;;;;5033053;28;20050;-79
2023/03/18 03:10:12;;;;;;;20.20;10.73;;;;;;;;;;5039348;28;20045;-78
2023/03/18 03:13:00;;;;;;;21.45;11.00;;;;;;;;;;5038754;28;20045;-78
2023/03/18 03:15:45;;;;;;;20.17;10.32;;;;;;;;;;5039356;28;20049;-78
2023/03/18 03:18:31;;;;;;;15.57;9.43;;;;;;;;;;5039259;28;20057;-78
2023/03/18 03:21:17;;;;;;;23.95;12.57;;;;;;;;;;5024867;28;20050;-79
2023/03/18 03:24:04;;;;;;;30.73;15.07;;;;;;;;;;5032766;28;20054;-78
2023/03/18 03:26:49;;;;;;;29.40;14.25;;;;;;;;;;5038762;28;20050;-79
2023/03/18 03:29:34;;;;;;;27.55;13.07;;;;;;;;;;5033279;28;20049;-78
2023/03/18 03:32:21;;;;;;;25.17;12.18;;;;;;;;;;5032497;28;20046;-77
2023/03/18 03:35:10;;;;;;;21.98;11.52;;;;;;;;;;5038366;28;20045;-78
2023/03/18 03:37:56;;;;;;;22.00;11.50;;;;;;;;;;5039541;28;20045;-78
2023/03/18 03:40:42;;;;;;;24.15;11.77;;;;;;;;;;5038556;28;20045;-78
2023/03/18 03:43:27;;;;;;;19.25;10.88;;;;;;;;;;5038806;28;20052;-78
2023/03/18 03:46:13;;;;;;;22.90;11.13;;;;;;;;;;5033224;28;20041;-78
2023/03/18 03:48:58;;;;;;;26.55;13.23;;;;;;;;;;5038491;28;20041;-79
2023/03/18 03:51:44;;;;;;;30.30;14.02;;;;;;;;;;5039241;28;20057;-79
2023/03/18 03:54:29;;;;;;;25.52;12.48;;;;;;;;;;5025164;28;20053;-78
2023/03/18 03:57:14;;;;;;;18.92;10.38;;;;;;;;;;5028521;28;20053;-78
2023/03/18 04:00:01;;;;;;;18.48;10.38;;;;;;;;;;5042157;28;20045;-78
2023/03/18 04:03:06;;;;;;;19.23;10.43;;;;;;;;;;5035937;28;20057;-78
2023/03/18 04:05:51;;;;;;;27.00;11.40;;;;;;;;;;5036625;28;20478;-79
2023/03/18 04:08:40;;;;;;;26.33;12.07;;;;;;;;;;5041840;28;20045;-78
2023/03/18 04:11:26;;;;;;;23.52;12.82;;;;;;;;;;5028473;28;20046;-78
2023/03/18 04:14:11;;;;;;;32.38;14.45;;;;;;;;;;5041738;28;20037;-78
2023/03/18 04:16:58;;;;;;;26.30;14.52;;;;;;;;;;5041668;28;20050;-78
2023/03/18 04:19:44;;;;;;;23.85;12.15;;;;;;;;;;5041570;28;20421;-78
2023/03/18 04:22:29;;;;;;;31.45;12.68;;;;;;;;;;5035876;28;20049;-78
2023/03/18 04:25:15;;;;;;;25.23;11.90;;;;;;;;;;5041559;28;20041;-78
2023/03/18 04:28:00;;;;;;;33.00;14.18;;;;;;;;;;5041950;28;20493;-78
2023/03/18 04:30:47;;;;;;;33.30;14.75;;;;;;;;;;5041461;28;20049;-78
2023/03/18 04:33:35;;;;;;;40.28;16.70;;;;;;;;;;5046240;28;20048;-78
2023/03/18 04:36:20;;;;;;;32.65;15.57;;;;;;;;;;5039534;28;20049;-79
2023/03/18 04:39:08;;;;;;;27.15;14.18;;;;;;;;;;5040277;28;20041;-78
2023/03/18 04:41:55;;;;;;;14.63;8.93;;;;;;;;;;5037354;28;20049;-78
2023/03/18 04:44:41;;;;;;;22.85;11.68;;;;;;;;;;5027234;28;20072;-79
2023/03/18 04:47:27;;;;;;;107.95;31.20;;;;;;;;;;5045751;28;20494;-79
2023/03/18 04:50:13;;;;;;;44.65;18.83;;;;;;;;;;5032741;28;20045;-78
2023/03/18 04:52:59;;;;;;;70.05;24.95;;;;;;;;;;5047603;28;20470;-79
2023/03/18 04:55:49;;;;;;;43.83;21.35;;;;;;;;;;5045445;28;20044;-79
2023/03/18 04:58:35;;;;;;;34.65;16.73;;;;;;;;;;5045073;28;20052;-79
2023/03/18 05:01:30;;;;;;;48.22;22.15;;;;;;;;;;5039496;28;20405;-78
2023/03/18 05:04:16;;;;;;;49.28;22.85;;;;;;;;;;5018323;28;20046;-78
2023/03/18 05:07:07;;;;;;;37.47;19.75;;;;;;;;;;5023915;28;20045;-79
2023/03/18 05:09:57;;;;;;;45.80;21.48;;;;;;;;;;5020669;28;20054;-78
2023/03/18 05:12:42;;;;;;;45.00;24.48;;;;;;;;;;5013845;28;20042;-79
2023/03/18 05:15:29;;;;;;;42.70;20.75;;;;;;;;;;5021056;28;20037;-78
2023/03/18 05:18:17;;;;;;;46.72;21.13;;;;;;;;;;5004160;28;20041;-79
2023/03/18 05:21:06;;;;;;;37.10;19.40;;;;;;;;;;5026976;28;20050;-80
2023/03/18 05:23:52;;;;;;;30.13;17.05;;;;;;;;;;5019879;28;20066;-79
2023/03/18 05:26:37;;;;;;;32.25;17.58;;;;;;;;;;5021755;28;20046;-79
2023/03/18 05:29:24;;;;;;;41.67;19.90;;;;;;;;;;5026448;28;20046;-78
2023/03/18 05:32:17;;;;;;;41.72;21.60;;;;;;;;;;5026190;28;20050;-79
2023/03/18 05:35:05;;;;;;;50.30;24.20;;;;;;;;;;5009666;28;20046;-78
2023/03/18 05:37:55;;;;;;;48.67;26.42;;;;;;;;;;5006702;28;20045;-78
2023/03/18 05:40:40;;;;;;;41.58;23.48;;;;;;;;;;5006472;28;20046;-78
2023/03/18 05:43:34;;;;;;;38.15;20.90;;;;;;;;;;4994491;28;20049;-79
2023/03/18 05:46:19;;;;;;;36.45;21.48;;;;;;;;;;5005944;28;20050;-79
2023/03/18 05:49:22;;;;;;;54.15;25.45;;;;;;;;;;5007128;28;20042;-78
2023/03/18 05:52:30;;;;;;;31.00;18.08;;;;;;;;;;5006698;28;20045;-80
2023/03/18 05:55:22;;;;;;;35.53;20.00;;;;;;;;;;5011829;28;20042;-79
2023/03/18 05:58:08;;;;;;;39.38;20.40;;;;;;;;;;4993125;28;20398;-79
2023/03/18 06:00:57;;;;;;;39.50;23.25;;;;;;;;;;5016332;28;20054;-80
2023/03/18 06:03:43;;;;;;;33.92;19.48;;;;;;;;;;5019738;28;20046;-80
2023/03/18 06:06:28;;;;;;;37.75;18.65;;;;;;;;;;5023618;28;20041;-80
2023/03/18 06:09:13;;;;;;;33.60;17.40;;;;;;;;;;5025546;28;20049;-80
2023/03/18 06:12:02;;;;;;;68.53;31.60;;;;;;;;;;5022624;28;20049;-79
2023/03/18 06:14:47;;;;;;;36.75;19.08;;;;;;;;;;5021001;28;20046;-80
2023/03/18 06:17:34;;;;;;;35.90;20.92;;;;;;;;;;5006229;28;20050;-80
2023/03/18 06:20:19;;;;;;;34.40;20.58;;;;;;;;;;5020152;28;20050;-80
2023/03/18 06:23:04;;;;;;;31.95;17.63;;;;;;;;;;5013045;28;20045;-80
2023/03/18 06:25:49;;;;;;;29.27;15.38;;;;;;;;;;5029682;28;20486;-80
2023/03/18 06:28:36;;;;;;;24.77;16.50;;;;;;;;;;5024797;28;20049;-80
2023/03/18 06:31:27;;;;;;;30.50;19.48;;;;;;;;;;5025885;28;20482;-80
2023/03/18 06:34:12;;;;;;;29.35;17.58;;;;;;;;;;5005426;28;20053;-80
2023/03/18 06:36:58;;;;;;;33.75;20.27;;;;;;;;;;5006434;28;20398;-79
2023/03/18 06:39:43;;;;;;;82.22;43.63;;;;;;;;;;5013231;28;20049;-80
2023/03/18 06:42:31;;;;;;;40.17;23.13;;;;;;;;;;5027979;28;20045;-80
2023/03/18 06:45:24;;;;;;;58.78;29.98;;;;;;;;;;5025628;28;20049;-80
2023/03/18 06:48:16;;;;;;;45.10;26.05;;;;;;;;;;5026895;28;20053;-78
2023/03/18 06:51:02;;;;;;;53.83;28.35;;;;;;;;;;5034213;28;20045;-79
2023/03/18 06:53:54;;;;;;;52.80;28.38;;;;;;;;;;5020207;28;20045;-80
2023/03/18 06:56:40;;;;;;;61.65;29.85;;;;;;;;;;5019287;28;20050;-80
2023/03/18 06:59:34;;;;;;;42.75;23.50;;;;;;;;;;5021490;28;20046;-80
2023/03/18 07:02:22;;;;;;;43.78;24.08;;;;;;;;;;5017245;28;20050;-80
2023/03/18 07:05:08;;;;;;;73.35;36.78;;;;;;;;;;5019336;28;20053;-80
2023/03/18 07:07:55;;;;;;;31.00;18.73;;;;;;;;;;5033206;28;20049;-80
2023/03/18 07:10:42;;;;;;;33.08;18.83;;;;;;;;;;5024097;28;20050;-80
2023/03/18 07:13:31;;;;;;;41.72;23.17;;;;;;;;;;5013331;28;20049;-81
2023/03/18 07:16:16;;;;;;;50.60;27.20;;;;;;;;;;5016866;28;20054;-80
2023/03/18 07:19:03;;;;;;;35.97;19.50;;;;;;;;;;5038606;28;20045;-80
2023/03/18 07:21:50;;;;;;;45.72;24.88;;;;;;;;;;5011159;28;20049;-80
2023/03/18 07:24:35;;;;;;;39.25;20.25;;;;;;;;;;5025039;28;20050;-80
2023/03/18 07:27:19;;;;;;;42.15;24.38;;;;;;;;;;5033194;28;20053;-80
2023/03/18 07:30:08;;;;;;;87.47;34.65;;;;;;;;;;5012612;28;20041;-79
2023/03/18 07:32:54;;;;;;;61.58;31.15;;;;;;;;;;5028637;28;20050;-79
2023/03/18 07:35:40;;;;;;;55.53;27.38;;;;;;;;;;5028124;28;20045;-80
2023/03/18 07:38:26;;;;;;;60.53;31.38;;;;;;;;;;5037094;28;20061;-80
2023/03/18 07:41:12;;;;;;;54.42;29.45;;;;;;;;;;5036727;28;20041;-80
2023/03/18 07:43:57;;;;;;;48.28;23.63;;;;;;;;;;5010121;28;20061;-79
2023/03/18 07:46:43;;;;;;;55.67;27.40;;;;;;;;;;5027320;28;20042;-79
2023/03/18 07:49:30;;;;;;;48.75;26.65;;;;;;;;;;5036403;28;20037;-79
2023/03/18 07:52:16;;;;;;;61.35;30.17;;;;;;;;;;5036890;28;20393;-81
2023/03/18 07:55:01;;;;;;;41.63;23.88;;;;;;;;;;5028215;28;20045;-81
2023/03/18 07:57:46;;;;;;;29.77;16.50;;;;;;;;;;5031576;28;20049;-79
2023/03/18 08:00:31;;;;;;;49.83;23.55;;;;;;;;;;5031618;28;20046;-80
2023/03/18 08:03:17;;;;;;;42.75;21.80;;;;;;;;;;5016503;28;20050;-79
2023/03/18 08:06:02;;;;;;;42.03;22.17;;;;;;;;;;5001731;28;20045;-79
2023/03/18 08:08:48;;;;;;;45.90;22.52;;;;;;;;;;5016268;28;20049;-79
2023/03/18 08:11:33;;;;;;;35.30;20.48;;;;;;;;;;5007444;28;20045;-80
2023/03/18 08:14:18;;;;;;;55.90;26.20;;;;;;;;;;5015945;28;20045;-80
2023/03/18 08:17:04;;;;;;;40.75;22.58;;;;;;;;;;5008047;28;20050;-79
2023/03/18 08:19:48;;;;;;;25.67;13.55;;;;;;;;;;5001393;28;20042;-79
2023/03/18 08:22:34;;;;;;;58.50;28.83;;;;;;;;;;5016767;28;20383;-79
2023/03/18 08:25:21;;;;;;;10.65;6.60;;;;;;;;;;5015902;28;20041;-80
2023/03/18 08:28:06;;;;;;;32.42;15.40;;;;;;;;;;5016718;28;20049;-80
2023/03/18 08:30:56;;;;;;;29.05;14.80;;;;;;;;;;5007889;28;20054;-80
2023/03/18 08:33:42;;;;;;;12.52;8.50;;;;;;;;;;5015869;28;20046;-79
2023/03/18 08:36:27;;;;;;;17.70;10.23;;;;;;;;;;5001257;28;20049;-79
2023/03/18 08:39:13;;;;;;;21.55;11.45;;;;;;;;;;5052816;28;20052;-80
2023/03/18 08:41:58;;;;;;;15.43;8.35;;;;;;;;;;5054385;28;20041;-79
2023/03/18 08:44:44;;;;;;;29.00;15.27;;;;;;;;;;5040393;28;20049;-79
2023/03/18 08:47:30;;;;;;;16.60;9.02;;;;;;;;;;5047227;28;20040;-80
2023/03/18 08:50:15;;;;;;;15.90;9.75;;;;;;;;;;5055225;28;20044;-80
2023/03/18 08:53:01;;;;;;;79.30;32.15;;;;;;;;;;5040493;28;20045;-78
2023/03/18 08:55:46;;;;;;;19.88;9.88;;;;;;;;;;5055727;28;20045;-78
2023/03/18 08:58:32;;;;;;;17.75;10.88;;;;;;;;;;5054878;28;20041;-77
2023/03/18 09:01:21;;;;;;;20.27;12.95;;;;;;;;;;5055501;28;20382;-79
2023/03/18 09:04:06;;;;;;;5.78;4.15;;;;;;;;;;5055298;28;20477;-79
2023/03/18 09:06:50;;;;;;;7.85;4.95;;;;;;;;;;5048291;28;20419;-79
2023/03/18 09:09:35;;;;;;;9.60;5.53;;;;;;;;;;5033681;28;20045;-79
2023/03/18 09:12:21;;;;;;;7.65;5.18;;;;;;;;;;5033902;28;20050;-79
2023/03/18 09:15:09;;;;;;;15.07;10.30;;;;;;;;;;5013069;28;20037;-79
2023/03/18 09:17:55;;;;;;;10.63;6.72;;;;;;;;;;5016726;28;20050;-80
2023/03/18 09:20:42;;;;;;;7.82;5.53;;;;;;;;;;5026619;28;20041;-80
2023/03/18 09:23:27;;;;;;;6.07;3.55;;;;;;;;;;5035110;28;20057;-79
2023/03/18 09:26:13;;;;;;;6.15;3.90;;;;;;;;;;5034955;28;20049;-81
2023/03/18 09:28:58;;;;;;;5.80;3.60;;;;;;;;;;5031735;28;20046;-79
2023/03/18 09:31:44;;;;;;;11.15;6.25;;;;;;;;;;5025538;28;20045;-80
2023/03/18 09:34:29;;;;;;;8.15;5.68;;;;;;;;;;5016778;28;20050;-79
2023/03/18 09:37:15;;;;;;;9.95;4.65;;;;;;;;;;5014474;28;20041;-79
2023/03/18 09:40:01;;;;;;;11.02;5.90;;;;;;;;;;5014734;28;20038;-78
2023/03/18 09:42:49;;;;;;;11.45;6.28;;;;;;;;;;5025414;28;20049;-79
2023/03/18 09:45:58;;;;;;;9.60;5.85;;;;;;;;;;5027026;28;20049;-80
2023/03/18 09:48:55;;;;;;;9.77;5.65;;;;;;;;;;5024973;28;20042;-79
2023/03/18 09:52:02;;;;;;;8.35;6.20;;;;;;;;;;5021152;28;20049;-78
2023/03/18 09:54:55;;;;;;;7.60;4.78;;;;;;;;;;5025121;28;20045;-80
2023/03/18 09:57:47;;;;;;;5.70;3.88;;;;;;;;;;5034089;28;20510;-79
2023/03/18 10:00:35;;;;;;;8.68;3.50;;;;;;;;;;5024798;28;20038;-79
2023/03/18 10:03:48;;;;;;;7.65;4.68;;;;;;;;;;5031903;28;20053;-78
2023/03/18 10:06:36;;;;;;;6.20;4.07;;;;;;;;;;5025643;28;20049;-79
2023/03/18 10:09:29;;;;;;;6.63;3.88;;;;;;;;;;5032830;28;20470;-78
2023/03/18 10:12:31;;;;;;;7.63;4.15;;;;;;;;;;5023334;28;20045;-80
2023/03/18 10:15:38;;;;;;;12.52;7.00;;;;;;;;;;5033691;28;20042;-80
2023/03/18 10:18:29;;;;;;;10.40;5.97;;;;;;;;;;5034153;28;20041;-80
2023/03/18 10:21:14;;;;;;;8.63;3.28;;;;;;;;;;5019682;28;20046;-79
2023/03/18 10:24:22;;;;;;;7.68;4.10;;;;;;;;;;5031963;28;20049;-79
2023/03/18 10:27:23;;;;;;;8.98;5.38;;;;;;;;;;5010572;28;20049;-78
2023/03/18 10:30:53;;;;;;;12.25;6.75;;;;;;;;;;5018865;28;20058;-80
2023/03/18 10:34:00;;;;;;;12.82;7.90;;;;;;;;;;5014969;28;20038;-80
2023/03/18 10:37:12;;;;;;;6.93;3.40;;;;;;;;;;5027610;28;20053;-79
2023/03/18 10:39:58;;;;;;;10.77;5.53;;;;;;;;;;5012003;28;20414;-81
2023/03/18 10:42:45;;;;;;;3.85;3.05;;;;;;;;;;5016101;28;20049;-79
2023/03/18 10:45:33;;;;;;;5.57;3.40;;;;;;;;;;5027020;28;20049;-80
2023/03/18 10:48:27;;;;;;;6.05;3.80;;;;;;;;;;5013968;28;20046;-79
2023/03/18 10:51:18;;;;;;;3.72;2.45;;;;;;;;;;5029604;28;20514;-79
2023/03/18 10:54:33;;;;;;;4.32;2.88;;;;;;;;;;5024706;28;20042;-80
2023/03/18 10:57:20;;;;;;;3.53;2.30;;;;;;;;;;5040159;28;20049;-80
2023/03/18 11:00:27;;;;;;;3.88;2.78;;;;;;;;;;5013759;28;20054;-77
2023/03/18 11:04:05;;;;;;;4.55;2.65;;;;;;;;;;5029673;28;20053;-80
2023/03/18 11:06:56;;;;;;;5.97;2.30;;;;;;;;;;5029256;28;20041;-80
2023/03/18 11:09:41;;;;;;;3.65;2.38;;;;;;;;;;5054852;28;20052;-78
2023/03/18 11:12:28;;;;;;;9.10;4.55;;;;;;;;;;5031916;28;20465;-78
2023/03/18 11:15:18;;;;;;;3.83;2.95;;;;;;;;;;5052976;28;20045;-78
2023/03/18 11:18:04;;;;;;;6.80;4.07;;;;;;;;;;5057334;28;20489;-79
2023/03/18 11:21:03;;;;;;;7.10;3.50;;;;;;;;;;5056931;28;20045;-79
2023/03/18 11:24:23;;;;;;;6.68;3.38;;;;;;;;;;5057759;28;20053;-79
2023/03/18 11:27:15;;;;;;;5.13;2.50;;;;;;;;;;5047572;28;20041;-80
2023/03/18 11:30:27;;;;;;;8.02;4.00;;;;;;;;;;5055768;28;20393;-78
2023/03/18 11:33:16;;;;;;;5.43;3.33;;;;;;;;;;5056711;28;20053;-79
2023/03/18 11:36:07;;;;;;;4.13;2.50;;;;;;;;;;5056540;28;20045;-79
2023/03/18 11:39:00;;;;;;;4.18;2.50;;;;;;;;;;5048783;28;20045;-80
2023/03/18 11:41:47;;;;;;;4.63;3.13;;;;;;;;;;5056541;28;20397;-80
2023/03/18 11:44:32;;;;;;;6.35;3.92;;;;;;;;;;5057122;28;20053;-80
2023/03/18 11:47:31;;;;;;;14.15;6.15;;;;;;;;;;5056507;28;20052;-80
2023/03/18 11:50:24;;;;;;;6.85;3.95;;;;;;;;;;5048499;28;20052;-78
2023/03/18 11:53:23;;;;;;;7.00;4.47;;;;;;;;;;5056526;28;20045;-79
2023/03/18 11:56:31;;;;;;;4.88;2.95;;;;;;;;;;5048146;28;20045;-80
2023/03/18 11:59:41;;;;;;;4.03;3.15;;;;;;;;;;5056828;28;20041;-80
2023/03/18 12:02:56;;;;;;;6.38;3.42;;;;;;;;;;5047919;28;20045;-80
2023/03/18 12:06:11;;;;;;;7.15;4.40;;;;;;;;;;5056675;28;20049;-80
2023/03/18 12:09:16;;;;;;;3.65;2.22;;;;;;;;;;5041333;28;20053;-80
2023/03/18 12:13:05;;;;;;;6.35;3.67;;;;;;;;;;5056225;28;20045;-79
2023/03/18 12:16:19;;;;;;;5.65;3.40;;;;;;;;;;5018447;28;20048;-78
2023/03/18 12:19:24;;;;;;;3.55;2.50;;;;;;;;;;5048433;28;20485;-79
2023/03/18 12:22:39;;;;;;;7.18;3.92;;;;;;;;;;5056183;28;20045;-80
2023/03/18 12:25:57;;;;;;;4.93;3.10;;;;;;;;;;5056198;28;20078;-81
2023/03/18 12:29:17;;;;;;;7.30;3.50;;;;;;;;;;5055374;28;20044;-80
2023/03/18 12:32:27;;;;;;;6.40;3.30;;;;;;;;;;5041367;28;20041;-78
2023/03/18 12:35:41;;;;;;;4.22;3.28;;;;;;;;;;5056027;28;20041;-81
2023/03/18 12:38:57;;;;;;;3.88;2.60;;;;;;;;;;5056068;28;20413;-80
2023/03/18 12:42:16;;;;;;;3.35;2.70;;;;;;;;;;5055901;28;20049;-81
2023/03/18 12:45:15;;;;;;;4.55;3.00;;;;;;;;;;5047337;28;20409;-78
2023/03/18 12:48:16;;;;;;;9.52;3.80;;;;;;;;;;5055627;28;20037;-79
2023/03/18 12:51:11;;;;;;;10.63;4.65;;;;;;;;;;5055005;28;20045;-79
2023/03/18 12:54:06;;;;;;;3.92;2.72;;;;;;;;;;5040768;28;20108;-79
2023/03/18 12:57:01;;;;;;;6.68;2.97;;;;;;;;;;5054803;28;20041;-79
2023/03/18 12:59:57;;;;;;;3.78;2.67;;;;;;;;;;5055388;28;20049;-80
2023/03/18 13:02:56;;;;;;;4.47;2.78;;;;;;;;;;5055528;28;20382;-79
2023/03/18 13:05:45;;;;;;;4.20;2.17;;;;;;;;;;5046664;28;20045;-81
2023/03/18 13:08:49;;;;;;;2.33;2.13;;;;;;;;;;5055148;28;20045;-78
2023/03/18 13:11:48;;;;;;;11.23;7.03;;;;;;;;;;5054959;28;20418;-79
2023/03/18 13:14:57;;;;;;;4.68;2.50;;;;;;;;;;5047112;28;20493;-79
2023/03/18 13:17:45;;;;;;;3.10;1.90;;;;;;;;;;5054858;28;20049;-80
2023/03/18 13:20:37;;;;;;;4.10;2.70;;;;;;;;;;5043820;28;20037;-79
2023/03/18 13:23:40;;;;;;;3.72;1.70;;;;;;;;;;5020257;28;20045;-79
2023/03/18 13:26:32;;;;;;;3.42;2.25;;;;;;;;;;5034746;28;20053;-78
2023/03/18 13:29:38;;;;;;;3.78;2.65;;;;;;;;;;5026197;28;20482;-79
2023/03/18 13:32:42;;;;;;;7.53;3.75;;;;;;;;;;5034655;28;20049;-79
2023/03/18 13:35:36;;;;;;;7.15;2.78;;;;;;;;;;5034266;28;20049;-79
2023/03/18 13:38:42;;;;;;;3.25;2.30;;;;;;;;;;5034566;28;20046;-80
2023/03/18 13:41:52;;;;;;;3.55;1.90;;;;;;;;;;5025453;28;20042;-81
2023/03/18 13:44:44;;;;;;;3.17;2.00;;;;;;;;;;5034860;28;20045;-79
2023/03/18 13:47:37;;;;;;;4.13;2.20;;;;;;;;;;5032712;28;20054;-82
2023/03/18 13:50:36;;;;;;;4.15;2.75;;;;;;;;;;5033745;28;20394;-80
2023/03/18 13:53:27;;;;;;;2.33;1.73;;;;;;;;;;5033695;28;20033;-80
2023/03/18 13:56:57;;;;;;;3.33;2.22;;;;;;;;;;5033887;28;20049;-79
2023/03/18 13:59:45;;;;;;;5.25;2.95;;;;;;;;;;5033733;28;20046;-79
2023/03/18 14:02:46;;;;;;;10.10;4.10;;;;;;;;;;5026208;28;20041;-78
2023/03/18 14:05:31;;;;;;;7.22;3.80;;;;;;;;;;5019407;28;20049;-78
2023/03/18 14:08:32;;;;;;;6.18;2.47;;;;;;;;;;5033589;28;20045;-78
2023/03/18 14:11:27;;;;;;;4.53;3.20;;;;;;;;;;5019800;28;20037;-77
2023/03/18 14:14:31;;;;;;;;;;;;;;;;;;5033983;28;20041;-79
2023/03/18 14:17:23;;;;;;;3.65;2.58;;;;;;;;;;5025850;28;19917;-81
2023/03/18 14:20:20;;;;;;;3.75;2.80;;;;;;;;;;5033887;28;20049;-80
2023/03/18 14:23:28;;;;;;;5.93;3.22;;;;;;;;;;5034051;28;20474;-79
2023/03/18 14:26:23;;;;;;;5.75;3.70;;;;;;;;;;5033960;28;20041;-80
2023/03/18 14:29:08;;;;;;;3.95;2.67;;;;;;;;;;5011707;28;20041;-79
2023/03/18 14:31:58;;;;;;;10.60;5.82;;;;;;;;;;5034011;28;20041;-79
2023/03/18 14:34:53;;;;;;;84.38;38.70;;;;;;;;;;5033611;28;20045;-78
2023/03/18 14:38:03;;;;;;;148.82;55.90;;;;;;;;;;5034191;28;20406;-80
2023/03/18 14:40:53;;;;;;;403.77;174.55;;;;;;;;;;5033122;28;20053;-79
2023/03/18 14:43:45;;;;;;;220.52;78.88;;;;;;;;;;5033372;28;20506;-78
2023/03/18 14:46:37;;;;;;;140.07;61.03;;;;;;;;;;5033857;28;20474;-80
2023/03/18 14:49:47;;;;;;;68.28;33.53;;;;;;;;;;5033353;28;20367;-80
2023/03/18 14:52:39;;;;;;;18.48;11.60;;;;;;;;;;5034110;28;20045;-79
2023/03/18 14:55:30;;;;;;;26.35;16.10;;;;;;;;;;5033536;28;20478;-79
2023/03/18 14:58:16;;;;;;;17.70;11.35;;;;;;;;;;5025081;28;20042;-78
2023/03/18 15:01:11;;;;;;;10.43;7.28;;;;;;;;;;5018570;28;20038;-79
2023/03/18 15:03:56;;;;;;;10.32;7.95;;;;;;;;;;5043304;28;20049;-80
2023/03/18 15:06:42;;;;;;;8.15;5.43;;;;;;;;;;5053245;28;20401;-81
2023/03/18 15:09:30;;;;;;;6.43;3.85;;;;;;;;;;5053157;28;20049;-78
2023/03/18 15:12:23;;;;;;;6.95;3.88;;;;;;;;;;5053529;28;20045;-80
2023/03/18 15:15:13;;;;;;;;;;;;;;;;;;5038652;28;20053;-79
2023/03/18 15:18:02;;;;;;;8.70;5.07;;;;;;;;;;5044766;28;20029;-78
2023/03/18 15:20:54;;;;;;;6.05;4.20;;;;;;;;;;5053448;28;20061;-78
2023/03/18 15:23:46;;;;;;;6.13;4.03;;;;;;;;;;5053131;28;20041;-78
2023/03/18 15:26:36;;;;;;;4.28;3.15;;;;;;;;;;5053164;28;20041;-77
2023/03/18 15:29:25;;;;;;;9.07;6.13;;;;;;;;;;5053359;28;20045;-78
2023/03/18 15:32:26;;;;;;;6.25;3.88;;;;;;;;;;5053027;28;20053;-79
2023/03/18 15:35:23;;;;;;;5.50;3.80;;;;;;;;;;5053300;28;20037;-78
2023/03/18 15:38:08;;;;;;;13.98;9.07;;;;;;;;;;5053049;28;20053;-77
2023/03/18 15:41:03;;;;;;;12.55;6.65;;;;;;;;;;5052752;28;20470;-78
2023/03/18 15:43:50;;;;;;;8.98;6.32;;;;;;;;;;5052751;28;20037;-79
2023/03/18 15:46:36;;;;;;;18.00;10.95;;;;;;;;;;5051463;28;20049;-79
2023/03/18 15:49:28;;;;;;;9.77;6.38;;;;;;;;;;5052932;28;20060;-77
2023/03/18 15:52:15;;;;;;;17.30;10.77;;;;;;;;;;5046639;28;20041;-77
2023/03/18 15:55:03;;;;;;;11.85;7.97;;;;;;;;;;5056424;28;20033;-78
2023/03/18 15:57:52;;;;;;;16.50;10.35;;;;;;;;;;5055583;28;20041;-78
2023/03/18 16:00:39;;;;;;;7.80;5.15;;;;;;;;;;5048098;28;20049;-77
2023/03/18 16:03:26;;;;;;;23.25;12.70;;;;;;;;;;5046075;28;20409;-77
2023/03/18 16:06:13;;;;;;;18.40;9.60;;;;;;;;;;5041329;28;20036;-77
2023/03/18 16:08:58;;;;;;;23.95;14.27;;;;;;;;;;5056828;28;20049;-77
2023/03/18 16:11:53;;;;;;;30.88;18.25;;;;;;;;;;5056279;28;20037;-78
2023/03/18 16:14:46;;;;;;;23.73;12.95;;;;;;;;;;5048450;28;20045;-77
2023/03/18 16:17:32;;;;;;;10.93;6.75;;;;;;;;;;5056230;28;20053;-79
2023/03/18 16:20:24;;;;;;;11.00;7.47;;;;;;;;;;5050486;28;20037;-79
2023/03/18 16:23:14;;;;;;;18.02;9.90;;;;;;;;;;5024326;28;20406;-80
2023/03/18 16:26:00;;;;;;;25.55;16.58;;;;;;;;;;5030091;28;20053;-77
2023/03/18 16:28:47;;;;;;;38.70;22.38;;;;;;;;;;5035840;28;20041;-79
2023/03/18 16:31:35;;;;;;;50.50;27.27;;;;;;;;;;5027836;28;20049;-78
2023/03/18 16:34:22;;;;;;;29.98;17.23;;;;;;;;;;5035436;28;20041;-78
2023/03/18 16:37:22;;;;;;;22.25;13.27;;;;;;;;;;5036168;28;20038;-78
2023/03/18 16:40:24;;;;;;;23.17;13.52;;;;;;;;;;5035956;28;20054;-78
2023/03/18 16:43:15;;;;;;;22.42;13.52;;;;;;;;;;5031946;28;20053;-79
2023/03/18 16:46:04;;;;;;;27.67;16.05;;;;;;;;;;5035286;28;20053;-77
2023/03/18 16:48:49;;;;;;;40.65;19.33;;;;;;;;;;5015585;28;20050;-78
2023/03/18 16:51:35;;;;;;;20.50;12.13;;;;;;;;;;5031653;28;20037;-77